createdAt,value
2023-01-29T00:00:32.051Z,30.65
2023-01-29T00:02:39.766Z,17.08
2023-01-29T00:06:14.399Z,12.85
2023-01-29T00:08:02.320Z,11.40
2023-01-29T00:09:49.778Z,16.55
2023-01-29T00:11:36.959Z,21.40
2023-01-29T00:13:24.160Z,19.65
2023-01-29T00:15:12.165Z,27.10
2023-01-29T00:16:59.465Z,22.85
2023-01-29T00:18:47.070Z,16.40
2023-01-29T00:20:34.381Z,21.48
2023-01-29T00:22:21.672Z,9.55
2023-01-29T00:24:09.211Z,14.38
2023-01-29T00:26:00.123Z,15.25
2023-01-29T00:27:47.385Z,14.48
2023-01-29T00:29:34.842Z,13.10
2023-01-29T00:31:26.034Z,13.85
2023-01-29T00:33:13.640Z,14.57
2023-01-29T00:35:01.141Z,12.48
2023-01-29T00:36:48.340Z,12.45
2023-01-29T00:38:36.727Z,15.25
2023-01-29T00:40:24.510Z,13.00
2023-01-29T00:42:30.457Z,14.32
2023-01-29T00:44:37.172Z,13.27
2023-01-29T00:46:24.434Z,12.77
2023-01-29T00:48:11.875Z,14.57
2023-01-29T00:50:00.551Z,12.75
2023-01-29T00:52:08.028Z,12.35
2023-01-29T00:53:58.303Z,12.95
2023-01-29T00:55:45.697Z,12.50
2023-01-29T00:57:34.833Z,13.32
2023-01-29T00:59:22.198Z,17.38
2023-01-29T01:01:09.575Z,18.42
2023-01-29T01:03:05.849Z,14.82
2023-01-29T01:04:53.719Z,13.63
2023-01-29T01:06:42.407Z,13.43
2023-01-29T01:08:48.028Z,16.67
2023-01-29T01:10:35.437Z,14.48
2023-01-29T01:12:25.143Z,17.35
2023-01-29T01:14:12.337Z,16.42
2023-01-29T01:16:02.036Z,12.38
2023-01-29T01:17:52.729Z,15.63
2023-01-29T01:19:40.093Z,14.88
2023-01-29T01:21:27.624Z,22.92
2023-01-29T01:23:14.790Z,16.48
2023-01-29T01:25:02.305Z,10.38
2023-01-29T01:26:49.705Z,17.85
2023-01-29T01:28:37.000Z,21.20
2023-01-29T01:30:25.832Z,19.58
2023-01-29T01:32:13.388Z,17.85
2023-01-29T01:34:00.648Z,16.77
2023-01-29T01:35:48.181Z,19.10
2023-01-29T01:37:37.637Z,21.13
2023-01-29T01:39:25.566Z,18.13
2023-01-29T01:41:15.558Z,16.75
2023-01-29T01:43:02.779Z,17.05
2023-01-29T01:45:04.494Z,17.75
2023-01-29T01:46:52.196Z,17.42
2023-01-29T01:48:39.360Z,16.90
2023-01-29T01:50:32.609Z,14.82
2023-01-29T01:52:20.918Z,18.52
2023-01-29T01:54:12.890Z,18.17
2023-01-29T01:56:06.650Z,15.50
2023-01-29T01:57:59.988Z,17.45
2023-01-29T01:59:49.903Z,17.95
2023-01-29T02:01:41.201Z,23.60
2023-01-29T02:03:49.487Z,49.47
2023-01-29T02:05:56.466Z,58.50
2023-01-29T02:08:07.049Z,33.28
2023-01-29T02:10:10.163Z,24.60
2023-01-29T02:11:57.578Z,26.60
2023-01-29T02:13:44.940Z,28.60
2023-01-29T02:15:32.236Z,32.22
2023-01-29T02:17:20.717Z,53.30
2023-01-29T02:19:23.822Z,65.90
2023-01-29T02:21:45.460Z,48.30
2023-01-29T02:24:07.698Z,32.60
2023-01-29T02:26:06.986Z,31.23
2023-01-29T02:28:21.644Z,21.60
2023-01-29T02:30:15.240Z,33.17
2023-01-29T02:32:21.909Z,31.33
2023-01-29T02:35:05.009Z,25.65
2023-01-29T02:37:04.758Z,21.67
2023-01-29T02:39:23.649Z,63.22
2023-01-29T02:41:25.440Z,36.10
2023-01-29T02:43:38.911Z,28.48
2023-01-29T02:45:49.846Z,30.90
2023-01-29T02:47:55.034Z,22.88
2023-01-29T02:49:52.990Z,23.70
2023-01-29T02:51:50.337Z,30.77
2023-01-29T02:53:50.714Z,22.33
2023-01-29T02:56:13.286Z,17.15
2023-01-29T02:58:15.362Z,17.75
2023-01-29T03:00:08.720Z,39.20
2023-01-29T03:02:04.585Z,34.63
2023-01-29T03:03:56.161Z,34.33
2023-01-29T03:05:53.545Z,38.53
2023-01-29T03:07:46.343Z,22.58
2023-01-29T03:09:46.590Z,18.13
2023-01-29T03:11:44.229Z,21.88
2023-01-29T03:13:51.903Z,19.90
2023-01-29T03:15:46.979Z,16.52
2023-01-29T03:18:09.769Z,16.50
2023-01-29T03:19:57.192Z,16.52
2023-01-29T03:22:00.516Z,14.00
2023-01-29T03:24:08.333Z,17.48
2023-01-29T03:26:17.513Z,21.98
2023-01-29T03:28:25.653Z,21.38
2023-01-29T03:30:35.850Z,15.75
2023-01-29T03:32:32.250Z,15.65
2023-01-29T03:34:28.455Z,14.32
2023-01-29T03:36:22.961Z,14.00
2023-01-29T03:38:11.832Z,15.93
2023-01-29T03:39:59.476Z,14.68
2023-01-29T03:41:54.368Z,14.25
2023-01-29T03:44:11.632Z,15.93
2023-01-29T03:46:18.951Z,17.05
2023-01-29T03:48:22.244Z,20.48
2023-01-29T03:50:36.386Z,18.63
2023-01-29T03:52:37.900Z,17.88
2023-01-29T03:54:45.887Z,15.43
2023-01-29T03:56:45.705Z,15.88
2023-01-29T03:58:43.779Z,14.50
2023-01-29T04:00:48.409Z,17.17
2023-01-29T04:02:42.655Z,14.38
2023-01-29T04:04:34.752Z,15.45
2023-01-29T04:06:28.102Z,14.38
2023-01-29T04:08:29.112Z,14.32
2023-01-29T04:10:23.073Z,17.05
2023-01-29T04:12:14.949Z,18.33
2023-01-29T04:14:04.211Z,14.95
2023-01-29T04:15:56.889Z,16.63
2023-01-29T04:18:19.855Z,21.90
2023-01-29T04:20:29.018Z,20.70
2023-01-29T04:22:25.026Z,18.83
2023-01-29T04:24:13.491Z,16.30
2023-01-29T04:26:26.454Z,17.58
2023-01-29T04:28:27.592Z,14.70
2023-01-29T04:30:17.901Z,15.68
2023-01-29T04:32:48.125Z,20.90
2023-01-29T04:34:59.765Z,20.52
2023-01-29T04:36:54.223Z,17.20
2023-01-29T04:38:51.628Z,29.02
2023-01-29T04:40:53.065Z,18.02
2023-01-29T04:42:54.486Z,16.35
2023-01-29T04:44:54.432Z,19.98
2023-01-29T04:47:33.432Z,18.73
2023-01-29T04:49:26.729Z,17.35
2023-01-29T04:51:30.935Z,20.15
2023-01-29T04:53:33.061Z,20.73
2023-01-29T04:55:36.078Z,16.63
2023-01-29T04:57:32.009Z,20.45
2023-01-29T04:59:36.693Z,19.38
2023-01-29T05:01:29.852Z,19.80
2023-01-29T05:03:17.316Z,20.05
2023-01-29T05:05:06.226Z,21.58
2023-01-29T05:06:54.016Z,26.02
2023-01-29T05:12:18.187Z,19.58
2023-01-29T05:14:10.005Z,21.80
2023-01-29T05:16:16.781Z,19.92
2023-01-29T05:18:08.821Z,19.88
2023-01-29T05:19:57.256Z,20.95
2023-01-29T05:21:48.141Z,20.42
2023-01-29T05:23:36.023Z,17.83
2023-01-29T05:25:25.410Z,20.42
2023-01-29T05:27:52.111Z,20.13
2023-01-29T05:29:47.165Z,22.17
2023-01-29T05:31:34.281Z,25.40
2023-01-29T05:33:47.126Z,22.63
2023-01-29T05:35:34.885Z,22.48
2023-01-29T05:37:22.259Z,18.90
2023-01-29T05:39:09.454Z,22.52
2023-01-29T05:40:59.538Z,21.17
2023-01-29T05:42:47.091Z,19.05
2023-01-29T05:44:34.168Z,22.92
2023-01-29T05:46:21.998Z,25.48
2023-01-29T05:48:09.520Z,18.48
2023-01-29T05:49:56.685Z,24.48
2023-01-29T05:51:44.242Z,20.87
2023-01-29T05:53:32.386Z,21.88
2023-01-29T05:57:06.684Z,21.95
2023-01-29T05:58:54.103Z,21.17
2023-01-29T06:00:42.419Z,23.45
2023-01-29T06:02:32.752Z,22.90
2023-01-29T06:04:20.254Z,20.15
2023-01-29T06:06:07.696Z,22.67
2023-01-29T06:07:55.588Z,19.10
2023-01-29T06:09:42.948Z,24.02
2023-01-29T06:11:30.338Z,19.58
2023-01-29T06:13:17.796Z,29.35
2023-01-29T06:15:05.639Z,29.10
2023-01-29T06:18:41.353Z,33.17
2023-01-29T06:20:28.464Z,31.95
2023-01-29T06:22:15.600Z,24.17
2023-01-29T06:24:03.131Z,28.55
2023-01-29T06:25:50.360Z,28.48
2023-01-29T06:27:37.835Z,29.33
2023-01-29T06:29:25.294Z,28.48
2023-01-29T06:31:31.405Z,27.35
2023-01-29T06:33:19.950Z,33.20
2023-01-29T06:35:07.740Z,23.23
2023-01-29T06:38:42.231Z,26.27
2023-01-29T06:40:29.457Z,23.08
2023-01-29T06:42:17.184Z,21.50
2023-01-29T06:44:04.939Z,19.92
2023-01-29T06:45:57.534Z,33.90
2023-01-29T06:47:44.769Z,35.97
2023-01-29T06:49:32.456Z,27.75
2023-01-29T06:51:19.690Z,27.25
2023-01-29T06:53:06.888Z,26.48
2023-01-29T06:54:54.691Z,28.88
2023-01-29T06:56:42.387Z,27.75
2023-01-29T06:58:30.215Z,28.98
2023-01-29T07:00:18.105Z,28.75
2023-01-29T07:02:05.569Z,31.15
2023-01-29T07:03:52.998Z,32.78
2023-01-29T07:05:40.230Z,29.83
2023-01-29T07:07:27.396Z,32.10
2023-01-29T07:09:15.208Z,27.63
2023-01-29T07:11:03.012Z,31.20
2023-01-29T07:12:50.267Z,24.52
2023-01-29T07:14:38.113Z,21.33
2023-01-29T07:16:26.548Z,21.58
2023-01-29T07:18:14.518Z,23.67
2023-01-29T07:20:02.077Z,20.83
2023-01-29T07:21:49.277Z,20.20
2023-01-29T07:23:36.852Z,32.35
2023-01-29T07:25:25.262Z,38.20
2023-01-29T07:27:12.494Z,47.03
2023-01-29T07:28:59.978Z,76.28
2023-01-29T07:30:47.616Z,65.65
2023-01-29T07:32:34.819Z,53.20
2023-01-29T07:34:22.398Z,47.63
2023-01-29T07:36:10.450Z,37.33
2023-01-29T07:37:57.720Z,33.13
2023-01-29T07:39:46.607Z,28.98
2023-01-29T07:41:33.787Z,45.30
2023-01-29T07:43:21.508Z,54.00
2023-01-29T07:45:09.981Z,62.55
2023-01-29T07:46:57.113Z,32.38
2023-01-29T07:48:44.673Z,38.70
2023-01-29T07:50:33.271Z,38.78
2023-01-29T07:52:22.338Z,25.77
2023-01-29T07:54:10.152Z,68.50
2023-01-29T07:55:57.790Z,32.63
2023-01-29T07:59:32.339Z,30.52
2023-01-29T08:01:19.989Z,36.83
2023-01-29T08:03:10.886Z,45.78
2023-01-29T08:04:58.002Z,25.42
2023-01-29T08:06:45.672Z,28.55
2023-01-29T08:08:33.274Z,17.30
2023-01-29T08:10:20.799Z,17.55
2023-01-29T08:12:08.792Z,22.23
2023-01-29T08:13:57.287Z,13.07
2023-01-29T08:15:48.320Z,23.98
2023-01-29T08:17:36.879Z,26.95
2023-01-29T08:19:28.556Z,25.92
2023-01-29T08:21:16.443Z,20.80
2023-01-29T08:23:06.189Z,22.17
2023-01-29T08:24:53.983Z,31.73
2023-01-29T08:26:47.585Z,15.18
2023-01-29T08:28:35.451Z,23.90
2023-01-29T08:30:22.939Z,20.40
2023-01-29T08:32:11.451Z,22.42
2023-01-29T08:33:59.042Z,26.27
2023-01-29T08:35:51.105Z,19.00
2023-01-29T08:37:38.267Z,18.13
2023-01-29T08:39:25.536Z,19.75
2023-01-29T08:41:12.969Z,20.42
2023-01-29T08:43:07.751Z,16.70
2023-01-29T08:44:56.517Z,16.45
2023-01-29T08:46:43.781Z,13.68
2023-01-29T08:48:31.592Z,15.68
2023-01-29T08:50:19.587Z,28.10
2023-01-29T08:53:54.279Z,18.60
2023-01-29T08:55:42.020Z,19.95
2023-01-29T08:57:29.282Z,22.92
2023-01-29T08:59:16.849Z,21.13
2023-01-29T09:01:12.628Z,18.58
2023-01-29T09:03:01.044Z,13.05
2023-01-29T09:04:48.280Z,13.05
2023-01-29T09:06:35.661Z,20.60
2023-01-29T09:08:23.284Z,19.50
2023-01-29T09:10:12.189Z,17.15
2023-01-29T09:11:59.437Z,22.63
2023-01-29T09:13:46.834Z,18.17
2023-01-29T09:15:34.129Z,23.92
2023-01-29T09:17:23.216Z,22.65
2023-01-29T09:19:10.716Z,16.17
2023-01-29T09:21:02.762Z,21.58
2023-01-29T09:22:53.675Z,17.92
2023-01-29T09:24:40.959Z,16.95
2023-01-29T09:26:28.425Z,18.98
2023-01-29T09:28:19.935Z,19.98
2023-01-29T09:30:08.117Z,23.92
2023-01-29T09:31:55.657Z,25.52
2023-01-29T09:33:43.314Z,21.70
2023-01-29T09:35:31.110Z,23.02
2023-01-29T09:37:19.329Z,23.83
2023-01-29T09:39:07.924Z,19.58
2023-01-29T09:42:54.784Z,52.78
2023-01-29T09:45:04.851Z,40.53
2023-01-29T09:46:53.863Z,27.77
2023-01-29T09:48:42.454Z,24.35
2023-01-29T09:50:43.647Z,34.97
2023-01-29T09:52:37.877Z,22.88
2023-01-29T09:54:39.730Z,23.60
2023-01-29T09:56:29.084Z,18.55
2023-01-29T09:58:37.202Z,35.80
2023-01-29T10:00:52.845Z,25.42
2023-01-29T10:03:02.106Z,31.95
2023-01-29T10:05:23.670Z,21.55
2023-01-29T10:07:23.016Z,18.10
2023-01-29T10:09:34.723Z,26.48
2023-01-29T10:11:32.501Z,21.83
2023-01-29T10:13:48.216Z,22.58
2023-01-29T10:15:49.067Z,26.40
2023-01-29T10:18:05.829Z,18.10
2023-01-29T10:20:10.292Z,19.45
2023-01-29T10:22:26.525Z,20.17
2023-01-29T10:24:36.744Z,18.77
2023-01-29T10:26:27.655Z,26.25
2023-01-29T10:28:34.261Z,18.23
2023-01-29T10:30:27.361Z,19.42
2023-01-29T10:32:18.194Z,18.95
2023-01-29T10:34:35.635Z,21.33
2023-01-29T10:36:32.452Z,20.92
2023-01-29T10:38:29.461Z,21.30
2023-01-29T10:40:29.520Z,21.50
2023-01-29T10:42:40.391Z,19.67
2023-01-29T10:44:40.388Z,30.25
2023-01-29T10:46:50.514Z,23.30
2023-01-29T10:48:52.936Z,23.40
2023-01-29T10:51:02.614Z,26.92
2023-01-29T10:53:27.769Z,23.30
2023-01-29T10:55:40.123Z,24.80
2023-01-29T10:57:58.695Z,24.85
2023-01-29T11:00:07.508Z,25.52
2023-01-29T11:01:59.498Z,26.98
2023-01-29T11:04:01.135Z,26.80
2023-01-29T11:06:10.422Z,21.58
2023-01-29T11:08:05.562Z,26.30
2023-01-29T11:10:09.011Z,31.45
2023-01-29T11:12:09.766Z,30.80
2023-01-29T11:14:10.077Z,31.38
2023-01-29T11:15:57.644Z,25.90
2023-01-29T11:18:05.028Z,27.42
2023-01-29T11:19:57.855Z,34.47
2023-01-29T11:22:01.958Z,29.48
2023-01-29T11:23:50.819Z,28.77
2023-01-29T11:25:38.056Z,26.35
2023-01-29T11:27:29.692Z,29.85
2023-01-29T11:29:39.863Z,27.02
2023-01-29T11:31:38.644Z,31.35
2023-01-29T11:33:26.343Z,30.52
2023-01-29T11:35:16.726Z,35.20
2023-01-29T11:37:15.449Z,30.33
2023-01-29T11:39:12.102Z,33.25
2023-01-29T11:41:08.363Z,37.97
2023-01-29T11:42:55.715Z,38.97
2023-01-29T11:44:43.468Z,41.33
2023-01-29T11:46:32.236Z,47.17
2023-01-29T11:48:27.578Z,40.92
2023-01-29T11:50:25.915Z,42.30
2023-01-29T11:52:15.469Z,34.72
2023-01-29T11:54:05.122Z,31.77
2023-01-29T11:55:52.931Z,31.35
2023-01-29T11:57:43.981Z,30.83
2023-01-29T11:59:48.615Z,32.42
2023-01-29T12:01:39.428Z,30.58
2023-01-29T12:03:43.844Z,44.90
2023-01-29T12:05:31.573Z,34.13
2023-01-29T12:07:19.751Z,34.88
2023-01-29T12:09:18.482Z,32.70
2023-01-29T12:11:12.782Z,38.28
2023-01-29T12:13:21.327Z,35.75
2023-01-29T12:15:09.094Z,39.65
2023-01-29T12:17:08.067Z,32.95
2023-01-29T12:19:08.019Z,34.55
2023-01-29T12:21:11.453Z,34.92
2023-01-29T12:23:06.045Z,37.20
2023-01-29T12:25:10.108Z,36.13
2023-01-29T12:27:16.445Z,39.17
2023-01-29T12:29:26.584Z,37.60
2023-01-29T12:31:29.571Z,38.00
2023-01-29T12:33:44.264Z,37.45
2023-01-29T12:35:50.017Z,53.20
2023-01-29T12:37:54.853Z,50.60
2023-01-29T12:39:42.334Z,31.85
2023-01-29T12:41:35.624Z,33.05
2023-01-29T12:43:31.836Z,31.00
2023-01-29T12:45:24.046Z,38.08
2023-01-29T12:47:37.953Z,33.15
2023-01-29T12:49:32.684Z,37.65
2023-01-29T12:51:25.650Z,35.05
2023-01-29T12:53:56.413Z,41.88
2023-01-29T12:55:49.089Z,34.90
2023-01-29T12:57:59.670Z,36.92
2023-01-29T12:59:57.473Z,38.30
2023-01-29T13:02:01.565Z,32.22
2023-01-29T13:04:06.751Z,32.83
2023-01-29T13:05:59.244Z,33.10
2023-01-29T13:08:14.343Z,38.70
2023-01-29T13:10:13.062Z,32.03
2023-01-29T13:12:08.229Z,36.03
2023-01-29T13:14:08.772Z,38.08
2023-01-29T13:15:58.897Z,33.75
2023-01-29T13:17:58.552Z,34.70
2023-01-29T13:19:51.440Z,30.73
2023-01-29T13:21:43.961Z,40.97
2023-01-29T13:23:38.044Z,35.75
2023-01-29T13:25:25.818Z,58.55
2023-01-29T13:27:30.829Z,37.13
2023-01-29T13:29:30.366Z,36.80
2023-01-29T13:31:38.062Z,42.75
2023-01-29T13:33:25.923Z,59.35
2023-01-29T13:35:15.099Z,51.75
2023-01-29T13:37:11.247Z,40.10
2023-01-29T13:39:09.135Z,41.38
2023-01-29T13:41:04.660Z,45.25
2023-01-29T13:42:54.360Z,39.55
2023-01-29T13:44:46.619Z,37.47
2023-01-29T13:46:39.590Z,42.83
2023-01-29T13:48:29.693Z,43.58
2023-01-29T13:50:19.040Z,38.85
2023-01-29T13:52:30.920Z,36.65
2023-01-29T13:54:25.222Z,34.97
2023-01-29T13:56:34.407Z,34.63
2023-01-29T13:58:45.177Z,34.85
2023-01-29T14:00:35.752Z,39.67
2023-01-29T14:02:26.655Z,37.20
2023-01-29T14:04:22.894Z,41.10
2023-01-29T14:06:10.454Z,45.40
2023-01-29T14:08:01.887Z,36.13
2023-01-29T14:09:49.508Z,37.53
2023-01-29T14:11:37.283Z,47.63
2023-01-29T14:13:35.163Z,44.42
2023-01-29T14:15:26.016Z,42.40
2023-01-29T14:17:20.030Z,37.35
2023-01-29T14:19:17.112Z,43.65
2023-01-29T14:21:07.198Z,39.53
2023-01-29T14:23:00.802Z,48.42
2023-01-29T14:24:50.023Z,41.75
2023-01-29T14:26:45.421Z,35.83
2023-01-29T14:28:35.263Z,40.60
2023-01-29T14:30:24.368Z,44.83
2023-01-29T14:32:14.809Z,46.65
2023-01-29T14:34:28.278Z,46.67
2023-01-29T14:36:17.904Z,39.22
2023-01-29T14:38:07.769Z,45.65
2023-01-29T14:39:58.316Z,49.78
2023-01-29T14:41:45.945Z,46.08
2023-01-29T14:47:19.095Z,40.90
2023-01-29T14:49:09.794Z,41.47
2023-01-29T14:51:06.756Z,38.00
2023-01-29T14:53:33.324Z,41.25
2023-01-29T14:55:53.665Z,39.60
2023-01-29T14:57:42.956Z,41.83
2023-01-29T14:59:39.795Z,32.65
2023-01-29T15:01:31.444Z,36.33
2023-01-29T15:03:45.858Z,38.40
2023-01-29T15:05:39.292Z,42.80
2023-01-29T15:08:04.359Z,48.05
2023-01-29T15:10:21.546Z,75.50
2023-01-29T15:12:31.279Z,54.50
2023-01-29T15:14:35.664Z,43.33
2023-01-29T15:16:30.712Z,47.97
2023-01-29T15:18:37.470Z,46.58
2023-01-29T15:20:27.295Z,53.80
2023-01-29T15:22:19.938Z,48.95
2023-01-29T15:24:07.964Z,47.75
2023-01-29T15:26:03.417Z,58.88
2023-01-29T15:27:55.149Z,83.63
2023-01-29T15:29:45.113Z,64.35
2023-01-29T15:31:33.231Z,60.53
2023-01-29T15:33:21.546Z,51.28
2023-01-29T15:36:58.309Z,62.92
2023-01-29T15:38:46.057Z,70.47
2023-01-29T15:40:34.491Z,44.97
2023-01-29T15:42:25.816Z,46.92
2023-01-29T15:44:19.529Z,45.05
2023-01-29T15:46:16.601Z,52.22
2023-01-29T15:48:13.439Z,49.47
2023-01-29T15:50:01.089Z,51.85
2023-01-29T15:51:55.023Z,50.53
2023-01-29T15:54:04.250Z,55.42
2023-01-29T15:55:51.945Z,52.30
2023-01-29T15:59:35.716Z,54.75
2023-01-29T16:01:27.218Z,51.63
2023-01-29T16:03:16.372Z,52.75
2023-01-29T16:05:11.195Z,53.63
2023-01-29T16:07:00.632Z,65.28
2023-01-29T16:08:52.206Z,62.50
2023-01-29T16:10:42.181Z,55.83
2023-01-29T16:12:32.607Z,65.30
2023-01-29T16:14:25.815Z,55.10
2023-01-29T16:16:14.970Z,60.75
2023-01-29T16:18:21.226Z,62.88
2023-01-29T16:20:29.810Z,71.55
2023-01-29T16:22:17.295Z,81.63
2023-01-29T16:26:28.515Z,55.15
2023-01-29T16:28:17.801Z,65.47
2023-01-29T16:30:07.628Z,63.65
2023-01-29T16:32:01.014Z,73.45
2023-01-29T16:33:49.724Z,60.75
2023-01-29T16:35:37.636Z,56.80
2023-01-29T16:37:28.500Z,53.00
2023-01-29T16:39:23.185Z,49.38
2023-01-29T16:41:16.753Z,51.33
2023-01-29T16:43:26.186Z,58.28
2023-01-29T16:45:29.588Z,53.83
2023-01-29T16:47:39.370Z,63.65
2023-01-29T16:49:27.065Z,58.83
2023-01-29T16:51:37.356Z,57.08
2023-01-29T16:53:27.938Z,58.40
2023-01-29T16:55:26.094Z,64.55
2023-01-29T16:57:23.401Z,63.65
2023-01-29T16:59:30.472Z,58.47
2023-01-29T17:01:20.339Z,53.92
2023-01-29T17:03:14.222Z,59.95
2023-01-29T17:05:10.361Z,57.65
2023-01-29T17:07:01.749Z,52.50
2023-01-29T17:08:51.356Z,53.17
2023-01-29T17:10:46.736Z,49.92
2023-01-29T17:12:35.845Z,55.70
2023-01-29T17:14:26.205Z,58.83
2023-01-29T17:16:22.534Z,51.42
2023-01-29T17:18:16.421Z,59.70
2023-01-29T17:20:15.661Z,57.38
2023-01-29T17:22:07.711Z,60.53
2023-01-29T17:23:55.713Z,65.10
2023-01-29T17:25:44.002Z,67.15
2023-01-29T17:27:32.198Z,59.03
2023-01-29T17:29:28.479Z,51.17
2023-01-29T17:31:16.420Z,51.65
2023-01-29T17:33:23.234Z,65.90
2023-01-29T17:35:17.529Z,60.30
2023-01-29T17:37:05.357Z,59.30
2023-01-29T17:38:52.594Z,62.92
2023-01-29T17:40:48.143Z,55.67
2023-01-29T17:42:35.606Z,48.53
2023-01-29T17:44:26.283Z,53.33
2023-01-29T17:46:17.290Z,60.35
2023-01-29T17:48:14.734Z,58.30
2023-01-29T17:50:03.209Z,51.13
2023-01-29T17:51:53.252Z,47.22
2023-01-29T17:53:47.204Z,56.10
2023-01-29T17:55:36.399Z,58.67
2023-01-29T17:57:25.877Z,60.85
2023-01-29T17:59:25.184Z,62.78
2023-01-29T18:01:13.336Z,61.92
2023-01-29T18:03:02.540Z,61.45
2023-01-29T18:04:51.030Z,79.40
2023-01-29T18:06:40.043Z,79.55
2023-01-29T18:08:32.792Z,65.57
2023-01-29T18:10:21.689Z,66.63
2023-01-29T18:12:11.700Z,77.05
2023-01-29T18:13:59.287Z,81.07
2023-01-29T18:15:53.032Z,79.97
2023-01-29T18:17:40.921Z,61.90
2023-01-29T18:21:17.156Z,54.60
2023-01-29T18:23:07.003Z,61.20
2023-01-29T18:24:55.654Z,57.03
2023-01-29T18:26:44.025Z,63.33
2023-01-29T18:28:32.896Z,60.42
2023-01-29T18:30:21.676Z,62.28
2023-01-29T18:32:12.081Z,75.05
2023-01-29T18:34:00.695Z,73.25
2023-01-29T18:35:49.634Z,62.75
2023-01-29T18:37:37.510Z,70.13
2023-01-29T18:41:16.357Z,72.72
2023-01-29T18:43:05.500Z,73.32
2023-01-29T18:44:53.958Z,74.63
2023-01-29T18:46:43.303Z,66.00
2023-01-29T18:48:31.561Z,58.63
2023-01-29T18:50:20.036Z,65.35
2023-01-29T18:52:09.960Z,59.92
2023-01-29T18:53:59.568Z,70.07
2023-01-29T18:55:59.591Z,73.15
2023-01-29T18:58:29.342Z,68.53
2023-01-29T18:59:54.927Z,62.58
2023-01-29T19:01:43.015Z,75.75
2023-01-29T19:03:33.231Z,69.68
2023-01-29T19:05:23.802Z,67.70
2023-01-29T19:07:13.554Z,73.22
2023-01-29T19:09:02.615Z,83.15
2023-01-29T19:10:50.620Z,151.88
2023-01-29T19:12:42.834Z,73.57
2023-01-29T19:14:31.312Z,65.70
2023-01-29T19:16:19.272Z,63.58
2023-01-29T19:20:02.064Z,65.40
2023-01-29T19:21:54.748Z,66.35
2023-01-29T19:23:43.745Z,63.25
2023-01-29T19:25:31.291Z,67.40
2023-01-29T19:27:18.612Z,73.53
2023-01-29T19:29:08.074Z,75.20
2023-01-29T19:30:58.509Z,74.32
2023-01-29T19:32:45.899Z,81.35
2023-01-29T19:34:33.622Z,77.22
2023-01-29T19:36:20.895Z,76.30
2023-01-29T19:38:08.244Z,76.20
2023-01-29T19:39:55.741Z,77.05
2023-01-29T19:41:43.715Z,76.05
2023-01-29T19:43:32.450Z,65.90
2023-01-29T19:45:37.233Z,64.07
2023-01-29T19:47:32.592Z,65.60
2023-01-29T19:49:19.892Z,62.55
2023-01-29T19:51:09.880Z,65.25
2023-01-29T19:52:58.616Z,66.72
2023-01-29T19:54:48.291Z,65.38
2023-01-29T19:56:38.041Z,74.95
2023-01-29T19:58:26.432Z,68.55
2023-01-29T20:00:15.527Z,67.45
2023-01-29T20:02:03.399Z,65.45
2023-01-29T20:03:53.093Z,66.20
2023-01-29T20:05:40.935Z,56.80
2023-01-29T20:07:28.464Z,67.47
2023-01-29T20:09:16.291Z,55.15
2023-01-29T20:11:05.699Z,55.38
2023-01-29T20:12:54.088Z,66.28
2023-01-29T20:14:52.295Z,65.30
2023-01-29T20:16:40.986Z,54.83
2023-01-29T20:18:29.875Z,64.97
2023-01-29T20:20:18.860Z,56.08
2023-01-29T20:22:06.402Z,63.95
2023-01-29T20:23:53.781Z,61.35
2023-01-29T20:25:41.562Z,51.45
2023-01-29T20:27:28.704Z,67.95
2023-01-29T20:29:16.563Z,40.15
2023-01-29T20:31:06.041Z,59.95
2023-01-29T20:32:54.202Z,55.13
2023-01-29T20:34:42.370Z,57.00
2023-01-29T20:36:30.346Z,59.05
2023-01-29T20:38:17.638Z,64.72
2023-01-29T20:40:05.626Z,55.35
2023-01-29T20:41:53.808Z,55.10
2023-01-29T20:43:41.750Z,56.53
2023-01-29T20:45:29.144Z,61.10
2023-01-29T20:49:06.972Z,57.85
2023-01-29T20:50:54.856Z,47.88
2023-01-29T20:52:43.137Z,73.30
2023-01-29T20:54:33.347Z,54.38
2023-01-29T20:56:34.289Z,65.25
2023-01-29T20:58:30.432Z,69.80
2023-01-29T21:00:20.497Z,58.80
2023-01-29T21:02:11.203Z,63.60
2023-01-29T21:04:01.562Z,61.58
2023-01-29T21:05:50.418Z,58.97
2023-01-29T21:07:37.937Z,58.35
2023-01-29T21:09:25.996Z,56.30
2023-01-29T21:11:13.783Z,65.85
2023-01-29T21:13:01.613Z,59.38
2023-01-29T21:14:50.198Z,51.67
2023-01-29T21:16:37.824Z,60.00
2023-01-29T21:18:26.521Z,55.25
2023-01-29T21:20:15.232Z,59.50
2023-01-29T21:22:03.147Z,57.03
2023-01-29T21:23:51.314Z,55.10
2023-01-29T21:25:39.664Z,58.22
2023-01-29T21:27:27.534Z,50.15
2023-01-29T21:29:15.987Z,56.67
2023-01-29T21:31:11.342Z,57.10
2023-01-29T21:32:59.327Z,48.90
2023-01-29T21:34:46.918Z,51.80
2023-01-29T21:36:36.317Z,56.20
2023-01-29T21:38:24.436Z,52.45
2023-01-29T21:40:12.140Z,50.42
2023-01-29T21:42:18.097Z,52.75
2023-01-29T21:44:05.807Z,52.55
2023-01-29T21:45:57.717Z,49.45
2023-01-29T21:47:45.433Z,47.88
2023-01-29T21:49:33.116Z,56.22
2023-01-29T21:51:20.469Z,54.92
2023-01-29T21:53:08.330Z,45.28
2023-01-29T21:54:55.860Z,41.05
2023-01-29T21:56:43.540Z,42.33
2023-01-29T22:02:09.657Z,44.80
2023-01-29T22:03:57.539Z,40.88
2023-01-29T22:05:45.536Z,48.25
2023-01-29T22:11:09.055Z,39.15
2023-01-29T22:12:56.737Z,37.38
2023-01-29T22:14:44.844Z,38.55
2023-01-29T22:16:32.494Z,39.72
2023-01-29T22:18:19.841Z,42.17
2023-01-29T22:20:12.554Z,32.55
2023-01-29T22:22:00.820Z,48.50
2023-01-29T22:23:49.542Z,43.67
2023-01-29T22:25:37.197Z,49.38
2023-01-29T22:27:25.017Z,48.90
2023-01-29T22:31:02.540Z,47.40
2023-01-29T22:32:50.484Z,48.75
2023-01-29T22:36:25.434Z,46.55
2023-01-29T22:38:12.841Z,49.05
2023-01-29T22:40:00.198Z,46.97
2023-01-29T22:41:48.193Z,50.45
2023-01-29T22:45:23.517Z,46.75
2023-01-29T22:47:11.053Z,44.15
2023-01-29T22:48:58.585Z,52.20
2023-01-29T22:50:53.931Z,60.28
2023-01-29T22:52:42.926Z,50.65
2023-01-29T22:54:30.324Z,45.90
2023-01-29T22:56:18.954Z,46.58
2023-01-29T22:58:06.944Z,45.88
2023-01-29T23:01:42.005Z,47.13
2023-01-29T23:03:29.825Z,43.75
2023-01-29T23:07:05.821Z,42.75
2023-01-29T23:08:53.807Z,41.40
2023-01-29T23:10:41.205Z,40.22
2023-01-29T23:12:29.440Z,41.97
2023-01-29T23:14:17.231Z,43.60
2023-01-29T23:16:04.735Z,43.53
2023-01-29T23:17:52.372Z,41.20
2023-01-29T23:19:39.689Z,43.08
2023-01-29T23:21:27.752Z,37.10
2023-01-29T23:25:02.854Z,34.67
2023-01-29T23:27:09.168Z,38.33
2023-01-29T23:28:56.781Z,37.58
2023-01-29T23:30:45.273Z,37.40
2023-01-29T23:32:33.318Z,37.33
2023-01-29T23:36:08.733Z,31.55
2023-01-29T23:37:56.778Z,31.95
2023-01-29T23:39:44.191Z,32.55
2023-01-29T23:41:31.810Z,32.00
2023-01-29T23:43:20.838Z,31.10
2023-01-29T23:45:08.550Z,30.48
2023-01-29T23:50:30.726Z,27.83
2023-01-29T23:52:18.424Z,29.98
2023-01-29T23:54:06.069Z,28.38
2023-01-29T23:57:44.945Z,22.23
2023-01-29T23:59:32.305Z,25.70
